Time;durP1;ratioP1;P1;durP2;ratioP2;P2;SDS_P1;SDS_P2;PMS_P1;PMS_P2;Temp;Humidity;BMP_temperature;BMP_pressure;BME280_temperature;BME280_humidity;BME280_pressure;Samples;Min_cycle;Max_cycle;Signal;HPM_P1;HPM_P2
2022/12/31 00:00:22;;;;;;;5.60;1.13;;;;;;;9.98;100.00;100127.53;5013469;28;20467;-69
2022/12/31 00:02:48;;;;;;;4.57;0.80;;;;;;;9.91;100.00;100135.25;5013629;28;20547;-69
2022/12/31 00:05:16;;;;;;;6.60;1.50;;;;;;;9.98;100.00;100132.94;5013504;28;20459;-69
2022/12/31 00:07:43;;;;;;;5.50;1.07;;;;;;;10.03;100.00;100138.22;5012502;28;20575;-69
2022/12/31 00:10:09;;;;;;;4.13;0.70;;;;;;;10.07;100.00;100141.91;5014355;28;20454;-69
2022/12/31 00:12:36;;;;;;;4.40;0.70;;;;;;;10.05;100.00;100141.44;5013225;28;20464;-69
2022/12/31 00:15:03;;;;;;;5.43;1.10;;;;;;;10.09;100.00;100148.63;5014328;28;20871;-68
2022/12/31 00:17:29;;;;;;;4.50;0.73;;;;;;;10.07;100.00;100136.50;5012953;28;20558;-69
2022/12/31 00:19:56;;;;;;;4.43;0.80;;;;;;;10.10;100.00;100154.84;5013165;28;20456;-68
2022/12/31 00:22:24;;;;;;;4.03;0.60;;;;;;;10.11;100.00;100149.09;5013064;28;20463;-69
2022/12/31 00:24:51;;;;;;;4.03;0.63;;;;;;;10.08;100.00;100159.75;5013097;28;20540;-69
2022/12/31 00:27:17;;;;;;;4.37;0.70;;;;;;;10.15;100.00;100156.63;5013974;28;20484;-69
2022/12/31 00:29:44;;;;;;;4.30;0.87;;;;;;;10.22;100.00;100165.06;5012966;28;20474;-69
2022/12/31 00:32:10;;;;;;;4.50;0.90;;;;;;;10.19;100.00;100152.19;5012368;28;20474;-68
2022/12/31 00:34:37;;;;;;;5.17;0.90;;;;;;;10.17;100.00;100165.22;5014029;28;20439;-68
2022/12/31 00:37:04;;;;;;;3.93;0.67;;;;;;;10.17;100.00;100155.19;5013032;28;20456;-69
2022/12/31 00:39:32;;;;;;;4.50;0.80;;;;;;;10.18;100.00;100150.56;5013509;28;20478;-68
2022/12/31 00:41:58;;;;;;;4.27;0.77;;;;;;;10.23;100.00;100155.88;5011822;28;20479;-68
2022/12/31 00:44:25;;;;;;;4.53;0.67;;;;;;;10.24;100.00;100161.00;5012807;28;20452;-69
2022/12/31 00:46:51;;;;;;;4.27;0.50;;;;;;;10.20;100.00;100145.66;5012365;28;20494;-68
2022/12/31 00:49:18;;;;;;;4.20;0.80;;;;;;;10.18;100.00;100143.28;5013695;28;20468;-68
2022/12/31 00:51:45;;;;;;;4.50;0.83;;;;;;;10.15;100.00;100154.69;5012541;28;20474;-68
2022/12/31 00:54:12;;;;;;;4.43;0.70;;;;;;;10.10;100.00;100168.38;5012703;28;20470;-68
2022/12/31 00:56:40;;;;;;;4.97;0.90;;;;;;;10.04;100.00;100173.06;5013642;28;20539;-69
2022/12/31 00:59:06;;;;;;;4.80;0.97;;;;;;;10.02;100.00;100177.22;5012500;28;20575;-69
2022/12/31 01:01:35;;;;;;;4.20;0.73;;;;;;;10.07;100.00;100188.72;5012253;28;20464;-68
2022/12/31 01:04:04;;;;;;;4.43;0.70;;;;;;;10.07;100.00;100194.13;5012658;28;20460;-69
2022/12/31 01:06:31;;;;;;;4.27;0.70;;;;;;;10.09;100.00;100186.50;5013388;28;20483;-69
2022/12/31 01:08:57;;;;;;;4.20;0.80;;;;;;;10.09;100.00;100193.81;5012075;28;20587;-69
2022/12/31 01:11:28;;;;;;;3.90;0.70;;;;;;;10.11;100.00;100205.13;5012910;28;20828;-69
2022/12/31 01:13:58;;;;;;;4.57;0.80;;;;;;;10.17;100.00;100192.28;5011800;28;20598;-68
2022/12/31 01:16:27;;;;;;;4.00;0.60;;;;;;;10.20;100.00;100191.66;5012110;28;20494;-69
2022/12/31 01:18:54;;;;;;;3.77;0.50;;;;;;;10.26;100.00;100199.38;5011869;28;20484;-68
2022/12/31 01:21:21;;;;;;;3.90;0.50;;;;;;;10.35;100.00;100202.13;5012986;28;20514;-68
2022/12/31 01:23:48;;;;;;;4.43;0.80;;;;;;;10.41;100.00;100205.53;5011483;28;20474;-68
2022/12/31 01:26:17;;;;;;;4.10;0.57;;;;;;;10.44;100.00;100196.78;5012448;28;20965;-69
2022/12/31 01:28:44;;;;;;;4.17;0.73;;;;;;;10.49;100.00;100202.88;5013233;28;20471;-68
2022/12/31 01:31:14;;;;;;;3.93;0.60;;;;;;;10.45;100.00;100195.69;5011291;28;20960;-69
2022/12/31 01:33:41;;;;;;;4.10;0.40;;;;;;;10.52;100.00;100215.00;5013282;28;20428;-69
2022/12/31 01:36:11;;;;;;;4.23;0.57;;;;;;;10.58;100.00;100219.16;5011277;28;20837;-69
2022/12/31 01:38:39;;;;;;;3.80;0.43;;;;;;;10.55;100.00;100219.78;5012822;28;20563;-68
2022/12/31 01:41:07;;;;;;;3.90;0.60;;;;;;;10.63;100.00;100220.97;5011095;28;20475;-69
2022/12/31 01:43:47;;;;;;;4.00;0.50;;;;;;;10.70;100.00;100230.22;5016831;28;20903;-68
2022/12/31 01:46:20;;;;;;;4.10;0.50;;;;;;;10.73;100.00;100232.31;5014707;28;20494;-69
2022/12/31 01:48:51;;;;;;;3.80;0.50;;;;;;;10.72;100.00;100232.66;5016681;28;21036;-69
2022/12/31 01:51:18;;;;;;;3.90;0.57;;;;;;;10.80;100.00;100237.28;5013560;28;20464;-69
2022/12/31 01:53:45;;;;;;;4.00;0.67;;;;;;;10.85;100.00;100229.03;5016932;28;20531;-68
2022/12/31 01:56:12;;;;;;;3.90;0.50;;;;;;;10.88;100.00;100224.91;5015596;28;20550;-69
2022/12/31 01:58:41;;;;;;;3.90;0.50;;;;;;;10.96;100.00;100224.94;5016195;28;20518;-69
2022/12/31 02:01:13;;;;;;;3.90;0.53;;;;;;;11.01;100.00;100232.13;5016096;28;20468;-69
2022/12/31 02:03:42;;;;;;;4.00;0.57;;;;;;;11.05;100.00;100239.31;5014787;28;20486;-69
2022/12/31 02:06:20;;;;;;;3.80;0.50;;;;;;;11.11;100.00;100243.50;5015236;28;20961;-69
2022/12/31 02:08:47;;;;;;;3.87;0.50;;;;;;;11.19;100.00;100236.50;5015718;28;20485;-68
2022/12/31 02:11:23;;;;;;;4.17;0.70;;;;;;;11.26;100.00;100236.84;5016294;28;20531;-68
2022/12/31 02:13:51;;;;;;;4.00;0.60;;;;;;;11.24;100.00;100239.06;5015531;28;20490;-69
2022/12/31 02:16:25;;;;;;;3.90;0.50;;;;;;;11.30;100.00;100240.53;5014330;28;20542;-69
2022/12/31 02:18:58;;;;;;;3.70;0.40;;;;;;;11.35;100.00;100229.56;4996669;28;20449;-69
2022/12/31 02:21:42;;;;;;;3.77;0.50;;;;;;;11.32;100.00;100227.47;5004144;28;20463;-69
2022/12/31 02:24:27;;;;;;;3.67;0.50;;;;;;;11.28;100.00;100234.63;5016456;28;20851;-69
2022/12/31 02:27:03;;;;;;;3.70;0.40;;;;;;;11.21;100.00;100228.88;5011356;28;20567;-69
2022/12/31 02:29:56;;;;;;;4.10;0.60;;;;;;;11.27;100.00;100224.91;5015246;28;20593;-69
2022/12/31 02:32:29;;;;;;;8.27;1.07;;;;;;;11.37;100.00;100231.94;5016260;28;20864;-69
2022/12/31 02:35:01;;;;;;;3.73;0.43;;;;;;;11.42;100.00;100236.41;5015160;28;20456;-70
2022/12/31 02:37:30;;;;;;;3.87;0.50;;;;;;;11.38;100.00;100225.41;5005496;28;21147;-69
2022/12/31 02:39:57;;;;;;;3.90;0.67;;;;;;;11.41;100.00;100226.69;5016130;28;20816;-69
2022/12/31 02:42:24;;;;;;;3.70;0.40;;;;;;;11.39;100.00;100234.34;5015133;28;20460;-68
2022/12/31 02:44:50;;;;;;;4.50;0.60;;;;;;;11.44;100.00;100240.41;5014805;28;20487;-69
2022/12/31 02:47:30;;;;;;;3.90;0.60;;;;;;;11.48;100.00;100235.16;5014735;28;20488;-69
2022/12/31 02:50:17;;;;;;;3.73;0.50;;;;;;;11.49;100.00;100221.28;5005191;28;20929;-69
2022/12/31 02:52:54;;;;;;;3.90;0.50;;;;;;;11.51;100.00;100223.66;5006954;28;20451;-69
2022/12/31 02:55:29;;;;;;;3.70;0.40;;;;;;;11.53;100.00;100232.31;5003654;28;20468;-68
2022/12/31 02:58:03;;;;;;;3.90;0.50;;;;;;;11.57;100.00;100230.56;5014384;28;20914;-68
2022/12/31 03:03:20;;;;;;;3.80;0.57;;;;;;;11.63;100.00;100219.22;5000445;28;20455;-68
2022/12/31 03:05:49;;;;;;;3.67;0.47;;;;;;;11.62;100.00;100219.56;5009276;28;21006;-69
2022/12/31 03:08:22;;;;;;;4.10;0.60;;;;;;;11.66;100.00;100217.81;5008186;28;20575;-69
2022/12/31 03:10:48;;;;;;;4.17;0.70;;;;;;;11.63;100.00;100221.16;5015393;28;20464;-68
2022/12/31 03:13:14;;;;;;;3.80;0.50;;;;;;;11.65;100.00;100224.34;5014413;28;20495;-68
2022/12/31 03:15:41;;;;;;;3.73;0.50;;;;;;;11.67;100.00;100213.97;5015352;28;20506;-69
2022/12/31 03:18:10;;;;;;;4.80;0.70;;;;;;;11.59;100.00;100212.03;5014884;28;20559;-69
2022/12/31 03:23:28;;;;;;;3.90;0.67;;;;;;;11.67;100.00;100222.13;5013888;28;21031;-68
2022/12/31 03:25:55;;;;;;;3.93;0.60;;;;;;;11.69;100.00;100214.47;5015215;28;20448;-68
2022/12/31 03:28:24;;;;;;;4.07;0.63;;;;;;;11.66;100.00;100217.81;5014322;28;20530;-69
2022/12/31 03:30:52;;;;;;;3.73;0.50;;;;;;;11.70;100.00;100216.06;5015112;28;20479;-69
2022/12/31 03:33:20;;;;;;;3.70;0.40;;;;;;;11.72;100.00;100210.31;5014091;28;20562;-69
2022/12/31 03:35:49;;;;;;;3.70;0.50;;;;;;;11.78;100.00;100217.19;5013854;28;20941;-69
2022/12/31 03:38:17;;;;;;;3.87;0.60;;;;;;;11.81;100.00;100209.19;5015992;28;20921;-69
2022/12/31 03:40:47;;;;;;;4.10;0.80;;;;;;;11.86;100.00;100225.38;5013920;28;20531;-68
2022/12/31 03:43:14;;;;;;;3.90;0.60;;;;;;;11.86;100.00;100208.28;4999994;28;20484;-68
2022/12/31 03:45:41;;;;;;;4.10;0.60;;;;;;;11.91;100.00;100205.41;4995630;28;20543;-68
2022/12/31 03:48:09;;;;;;;3.87;0.60;;;;;;;11.87;100.00;100196.31;5014613;28;20498;-68
2022/12/31 03:50:36;;;;;;;3.70;0.40;;;;;;;11.92;100.00;100192.66;5014245;28;20452;-67
2022/12/31 03:53:04;;;;;;;3.90;0.50;;;;;;;11.93;100.00;100194.25;5001276;28;20471;-69
2022/12/31 03:55:31;;;;;;;4.00;0.60;;;;;;;11.91;100.00;100181.00;5014370;28;20538;-69
2022/12/31 03:57:57;;;;;;;4.30;0.90;;;;;;;11.94;100.00;100179.53;4999651;28;20477;-68
2022/12/31 04:00:24;;;;;;;4.13;0.67;;;;;;;11.88;100.00;100187.06;5014322;28;20452;-69
2022/12/31 04:02:51;;;;;;;3.70;0.60;;;;;;;11.95;100.00;100186.56;5013917;28;20463;-69
2022/12/31 04:05:18;;;;;;;4.43;0.50;;;;;;;12.01;100.00;100188.00;5012889;28;20491;-69
2022/12/31 04:07:45;;;;;;;3.80;0.50;;;;;;;12.08;100.00;100189.09;5014124;28;20924;-69
2022/12/31 04:10:16;;;;;;;3.70;0.40;;;;;;;12.12;100.00;100183.84;5010040;28;20452;-69
2022/12/31 04:12:43;;;;;;;3.70;0.40;;;;;;;12.11;100.00;100193.09;5013830;28;20460;-69
2022/12/31 04:15:19;;;;;;;3.87;0.47;;;;;;;12.04;100.00;100188.19;5013121;28;20452;-69
2022/12/31 04:17:45;;;;;;;4.10;0.60;;;;;;;12.08;100.00;100191.03;5014173;28;20464;-68
2022/12/31 04:20:13;;;;;;;3.70;0.47;;;;;;;12.08;100.00;100186.38;5012976;28;20975;-69
2022/12/31 04:22:39;;;;;;;4.17;0.60;;;;;;;12.13;100.00;100190.88;5014155;28;20535;-69
2022/12/31 04:25:10;;;;;;;3.73;0.50;;;;;;;12.19;100.00;100195.03;5013204;28;20463;-69
2022/12/31 04:27:38;;;;;;;4.93;0.83;;;;;;;12.18;100.00;100201.56;5013091;28;20507;-69
2022/12/31 04:30:06;;;;;;;4.37;0.80;;;;;;;12.15;100.00;100209.56;5012907;28;20467;-69
2022/12/31 04:32:33;;;;;;;4.53;0.63;;;;;;;12.08;100.00;100199.16;5014018;28;20440;-68
2022/12/31 04:34:59;;;;;;;3.80;0.60;;;;;;;12.07;100.00;100186.72;5013088;28;20997;-69
2022/12/31 04:37:26;;;;;;;3.87;0.60;;;;;;;12.02;100.00;100192.31;5012395;28;20566;-69
2022/12/31 04:39:52;;;;;;;4.10;0.60;;;;;;;11.98;100.00;100189.44;5012937;28;20459;-69
2022/12/31 04:42:19;;;;;;;3.87;0.63;;;;;;;11.93;100.00;100183.38;5012035;28;21003;-69
2022/12/31 04:44:47;;;;;;;4.10;0.70;;;;;;;11.83;100.00;100181.78;5013435;28;20534;-69
2022/12/31 04:47:14;;;;;;;3.90;0.63;;;;;;;11.77;100.00;100172.97;5009131;28;20544;-69
2022/12/31 04:49:40;;;;;;;3.80;0.50;;;;;;;11.81;100.00;100151.41;4994105;28;20441;-69
2022/12/31 04:52:07;;;;;;;3.67;0.40;;;;;;;11.81;100.00;100145.97;5005388;28;20460;-69
2022/12/31 04:54:33;;;;;;;5.70;0.60;;;;;;;11.76;100.00;100146.94;5013395;28;20448;-69
2022/12/31 04:57:00;;;;;;;6.00;1.00;;;;;;;11.77;100.00;100143.09;5012702;28;20907;-69
2022/12/31 04:59:27;;;;;;;4.00;0.63;;;;;;;11.76;100.00;100149.66;5012476;28;20498;-69
2022/12/31 05:01:54;;;;;;;4.37;0.90;;;;;;;11.83;100.00;100138.38;5012568;28;20464;-68
2022/12/31 05:04:21;;;;;;;3.80;0.60;;;;;;;11.80;100.00;100134.34;5013272;28;20444;-69
2022/12/31 05:06:48;;;;;;;4.13;0.60;;;;;;;11.81;100.00;100135.94;5006322;28;20842;-69
2022/12/31 05:09:14;;;;;;;4.43;0.60;;;;;;;11.84;100.00;100137.25;5004333;28;20492;-69
2022/12/31 05:11:41;;;;;;;4.80;0.83;;;;;;;11.88;100.00;100140.91;5012540;28;20554;-68
2022/12/31 05:14:07;;;;;;;4.10;0.80;;;;;;;11.97;100.00;100146.34;5013485;28;20545;-69
2022/12/31 05:16:34;;;;;;;4.40;0.80;;;;;;;11.94;100.00;100152.41;5011779;28;20458;-69
2022/12/31 05:19:05;;;;;;;3.90;0.60;;;;;;;12.02;100.00;100157.03;5012346;28;20482;-68
2022/12/31 05:21:31;;;;;;;4.90;0.80;;;;;;;12.03;100.00;100156.69;5011954;28;20554;-68
2022/12/31 05:23:58;;;;;;;3.77;0.47;;;;;;;12.04;100.00;100154.78;5012790;28;20459;-69
2022/12/31 05:26:25;;;;;;;4.20;0.73;;;;;;;12.01;100.00;100155.44;5012560;28;20462;-69
2022/12/31 05:28:51;;;;;;;5.97;0.67;;;;;;;11.99;100.00;100152.22;5012134;28;20491;-69
2022/12/31 05:31:18;;;;;;;3.87;0.60;;;;;;;11.91;100.00;100164.72;5013303;28;20531;-69
2022/12/31 05:33:44;;;;;;;3.90;0.53;;;;;;;11.74;100.00;100151.91;5012955;28;20452;-69
2022/12/31 05:36:13;;;;;;;4.77;0.80;;;;;;;11.69;100.00;100154.78;5012228;28;20902;-69
2022/12/31 05:38:40;;;;;;;4.00;0.50;;;;;;;11.65;100.00;100147.59;5011842;28;20501;-69
2022/12/31 05:41:07;;;;;;;4.00;0.60;;;;;;;11.63;100.00;100139.75;5012357;28;20841;-69
2022/12/31 05:43:35;;;;;;;3.90;0.60;;;;;;;11.57;100.00;100130.19;5012940;28;20527;-67
2022/12/31 05:46:02;;;;;;;3.87;0.53;;;;;;;11.50;100.00;100117.09;5013006;28;20824;-69
2022/12/31 05:48:29;;;;;;;4.40;0.60;;;;;;;11.47;100.00;100108.81;4993856;28;20494;-69
2022/12/31 05:50:55;;;;;;;3.80;0.50;;;;;;;11.43;100.00;100107.88;5011327;28;20458;-69
2022/12/31 05:53:23;;;;;;;4.20;0.60;;;;;;;11.45;100.00;100105.63;5013135;28;20523;-69
2022/12/31 05:55:50;;;;;;;3.83;0.50;;;;;;;11.42;100.00;100107.06;5009799;28;20560;-69
2022/12/31 05:58:16;;;;;;;4.10;0.80;;;;;;;11.44;100.00;100109.44;5012614;28;20460;-69
2022/12/31 06:00:44;;;;;;;3.90;0.80;;;;;;;11.49;100.00;100093.81;5011730;28;20837;-69
2022/12/31 06:03:11;;;;;;;4.73;0.77;;;;;;;11.50;100.00;100081.84;5012654;28;20448;-69
2022/12/31 06:05:41;;;;;;;3.90;0.50;;;;;;;11.49;100.00;100080.25;5011058;28;20492;-68
2022/12/31 06:08:08;;;;;;;3.80;0.50;;;;;;;11.48;100.00;100089.50;4996415;28;20485;-69
2022/12/31 06:10:36;;;;;;;3.90;0.50;;;;;;;11.43;100.00;100083.47;5008902;28;20467;-69
2022/12/31 06:13:03;;;;;;;3.90;0.50;;;;;;;11.33;100.00;100092.69;5012932;28;20470;-69
2022/12/31 06:15:30;;;;;;;4.07;0.70;;;;;;;11.38;100.00;100079.00;5012437;28;20470;-69
2022/12/31 06:17:56;;;;;;;4.17;0.63;;;;;;;11.39;100.00;100082.50;5012743;28;20484;-69
2022/12/31 06:20:23;;;;;;;3.97;0.60;;;;;;;11.38;100.00;100076.28;5006233;28;20548;-69
2022/12/31 06:22:50;;;;;;;3.80;0.50;;;;;;;11.42;100.00;100071.81;4993003;28;20968;-69
2022/12/31 06:25:16;;;;;;;3.93;0.53;;;;;;;11.45;100.00;100056.81;5006846;28;20499;-69
2022/12/31 06:27:44;;;;;;;4.20;0.80;;;;;;;11.49;100.00;100068.59;5012612;28;20464;-69
2022/12/31 06:30:12;;;;;;;4.20;0.80;;;;;;;11.49;100.00;100066.69;5013682;28;20555;-69
2022/12/31 06:32:39;;;;;;;4.30;0.80;;;;;;;11.52;100.00;100074.19;5016285;28;20439;-69
2022/12/31 06:35:07;;;;;;;4.80;0.73;;;;;;;11.55;100.00;100080.88;5015189;28;20471;-69
2022/12/31 06:37:33;;;;;;;4.97;0.70;;;;;;;11.54;100.00;100074.66;5015802;28;20476;-69
2022/12/31 06:40:00;;;;;;;4.87;0.70;;;;;;;11.62;100.00;100084.72;5014163;28;20475;-69
2022/12/31 06:42:28;;;;;;;4.57;0.70;;;;;;;11.71;100.00;100075.78;5015743;28;20538;-69
2022/12/31 06:44:56;;;;;;;5.70;0.90;;;;;;;11.77;100.00;100063.63;5015594;28;20470;-69
2022/12/31 06:47:22;;;;;;;4.33;0.70;;;;;;;11.83;100.00;100056.97;5015661;28;20451;-69
2022/12/31 06:49:49;;;;;;;4.07;0.70;;;;;;;11.89;100.00;100066.50;5014761;28;20494;-69
2022/12/31 06:52:15;;;;;;;4.17;0.70;;;;;;;12.00;100.00;100067.78;5015933;28;20447;-69
2022/12/31 06:54:43;;;;;;;4.47;0.70;;;;;;;12.06;100.00;100062.97;5014100;28;20542;-69
2022/12/31 06:57:10;;;;;;;3.87;0.40;;;;;;;12.06;100.00;100054.81;5015630;28;20467;-69
2022/12/31 06:59:37;;;;;;;4.03;0.63;;;;;;;12.16;100.00;100053.69;5014700;28;20468;-69
2022/12/31 07:02:36;;;;;;;3.90;0.50;;;;;;;12.21;100.00;100048.84;5015397;28;20450;-69
2022/12/31 07:05:21;;;;;;;3.93;0.40;;;;;;;12.28;100.00;100053.81;5008662;28;20543;-69
2022/12/31 07:08:01;;;;;;;4.10;0.60;;;;;;;12.27;100.00;100053.00;5001648;28;20461;-69
2022/12/31 07:10:40;;;;;;;4.40;0.70;;;;;;;12.32;100.00;100050.09;5013820;28;20495;-69
2022/12/31 07:13:33;;;;;;;4.00;0.57;;;;;;;12.37;100.00;100041.78;5012062;28;20460;-69
2022/12/31 07:16:19;;;;;;;4.03;0.50;;;;;;;12.46;100.00;100047.16;5006236;28;20492;-69
2022/12/31 07:18:50;;;;;;;4.23;0.60;;;;;;;12.56;100.00;100046.78;5014330;28;20512;-69
2022/12/31 07:21:29;;;;;;;3.97;0.50;;;;;;;12.61;100.00;100049.31;5014298;28;20538;-69
2022/12/31 07:23:56;;;;;;;4.00;0.67;;;;;;;12.71;100.00;100048.16;5014018;28;20818;-69
2022/12/31 07:26:34;;;;;;;3.87;0.50;;;;;;;12.61;100.00;100062.09;5011344;28;20449;-69
2022/12/31 07:29:10;;;;;;;4.20;0.50;;;;;;;12.66;100.00;100051.09;5007225;28;20876;-69
2022/12/31 07:31:52;;;;;;;4.43;0.80;;;;;;;12.79;100.00;100055.47;5014260;28;20455;-69
2022/12/31 07:34:30;;;;;;;5.80;0.97;;;;;;;12.73;100.00;100039.69;5014299;28;20436;-69
2022/12/31 07:37:07;;;;;;;4.03;0.50;;;;;;;12.83;100.00;100056.38;5013928;28;20979;-69
2022/12/31 07:39:42;;;;;;;4.00;0.50;;;;;;;12.98;100.00;100054.25;5013329;28;20543;-69
2022/12/31 07:42:16;;;;;;;6.30;0.70;;;;;;;13.10;100.00;100057.84;5013930;28;20470;-72
2022/12/31 07:44:58;;;;;;;4.00;0.60;;;;;;;13.11;100.00;100055.91;5014940;28;20423;-69
2022/12/31 07:47:27;;;;;;;4.30;0.70;;;;;;;13.14;100.00;100052.50;5011297;28;20458;-69
2022/12/31 07:49:54;;;;;;;4.57;0.83;;;;;;;13.21;100.00;100071.81;5014763;28;20515;-69
2022/12/31 07:52:23;;;;;;;4.40;0.97;;;;;;;13.31;100.00;100086.97;5009963;28;20471;-71
2022/12/31 07:54:50;;;;;;;4.40;0.60;;;;;;;13.43;100.00;100084.34;5014427;28;20956;-69
2022/12/31 07:57:19;;;;;;;4.50;0.70;;;;;;;13.46;100.00;100093.75;5010603;28;20582;-69
2022/12/31 07:59:58;;;;;;;4.00;0.50;;;;;;;13.57;100.00;100084.06;5013488;28;20454;-69
2022/12/31 08:02:43;;;;;;;3.97;0.50;;;;;;;13.57;100.00;100089.50;5012545;28;20460;-69
2022/12/31 08:05:18;;;;;;;4.27;0.53;;;;;;;13.65;100.00;100098.72;5014596;28;20455;-69
2022/12/31 08:07:55;;;;;;;4.50;0.70;;;;;;;13.81;100.00;100105.13;5012873;28;20486;-69
2022/12/31 08:10:28;;;;;;;4.20;0.50;;;;;;;13.88;100.00;100105.41;5014314;28;20479;-69
2022/12/31 08:13:01;;;;;;;4.00;0.50;;;;;;;13.97;100.00;100114.28;5010786;28;20832;-69
2022/12/31 08:15:28;;;;;;;5.13;0.60;;;;;;;14.05;100.00;100109.88;5014310;28;20444;-69
2022/12/31 08:17:55;;;;;;;3.87;0.43;;;;;;;14.12;100.00;100091.88;5013327;28;20476;-69
2022/12/31 08:20:22;;;;;;;4.83;0.60;;;;;;;14.08;100.00;100088.22;5013101;28;20471;-69
2022/12/31 08:23:20;;;;;;;4.00;0.60;;;;;;;14.22;100.00;100092.56;5011590;28;20542;-69
2022/12/31 08:26:01;;;;;;;4.10;0.50;;;;;;;14.31;100.00;100091.34;5014096;28;20448;-69
2022/12/31 08:28:41;;;;;;;4.20;0.80;;;;;;;14.38;100.00;100094.28;5010118;28;20484;-70
2022/12/31 08:31:13;;;;;;;4.97;0.80;;;;;;;14.33;100.00;100110.06;5013707;28;20507;-69
2022/12/31 08:33:49;;;;;;;4.00;0.60;;;;;;;14.46;99.74;100102.69;5013015;28;20452;-70
2022/12/31 08:36:26;;;;;;;4.10;0.60;;;;;;;14.54;99.88;100113.53;5014036;28;20869;-69
2022/12/31 08:39:00;;;;;;;4.23;0.73;;;;;;;14.61;99.22;100111.06;5001030;28;21064;-69
2022/12/31 08:41:29;;;;;;;3.80;0.40;;;;;;;14.58;99.07;100103.53;5012559;28;20969;-69
2022/12/31 08:44:07;;;;;;;4.30;0.73;;;;;;;14.64;99.30;100104.09;5011784;28;20559;-69
2022/12/31 08:46:43;;;;;;;4.30;0.50;;;;;;;14.63;98.97;100113.44;5013732;28;20424;-69
2022/12/31 08:49:11;;;;;;;4.83;0.70;;;;;;;14.64;99.24;100110.34;5011260;28;21063;-69
2022/12/31 08:51:38;;;;;;;3.87;0.50;;;;;;;14.72;99.13;100100.47;5012013;28;20448;-69
2022/12/31 08:54:09;;;;;;;5.20;0.60;;;;;;;14.76;98.20;100116.97;5012845;28;20480;-69
2022/12/31 08:56:42;;;;;;;4.03;0.70;;;;;;;14.87;98.65;100112.63;5012665;28;20455;-69
2022/12/31 08:59:21;;;;;;;4.70;0.87;;;;;;;15.00;96.51;100105.22;5013388;28;20480;-69
2022/12/31 09:02:07;;;;;;;3.80;0.43;;;;;;;15.06;96.29;100110.13;5012682;28;20563;-69
2022/12/31 09:04:46;;;;;;;3.90;0.50;;;;;;;15.14;95.92;100122.06;5013680;28;20779;-69
2022/12/31 09:07:15;;;;;;;4.00;0.60;;;;;;;15.22;95.78;100123.84;5011674;28;20451;-69
2022/12/31 09:09:57;;;;;;;6.13;0.70;;;;;;;15.32;95.47;100109.75;5013492;28;20491;-69
2022/12/31 09:12:32;;;;;;;4.00;0.60;;;;;;;15.27;95.49;100118.19;5012569;28;20629;-69
2022/12/31 09:15:06;;;;;;;3.90;0.50;;;;;;;15.36;95.16;100113.38;5013264;28;20432;-69
2022/12/31 09:17:42;;;;;;;4.87;0.83;;;;;;;15.39;95.13;100115.41;5012006;28;20487;-69
2022/12/31 09:20:17;;;;;;;3.80;0.47;;;;;;;15.53;94.15;100109.56;5013490;28;20439;-69
2022/12/31 09:22:44;;;;;;;4.00;0.50;;;;;;;15.56;93.86;100119.00;5012384;28;20465;-74
2022/12/31 09:25:15;;;;;;;3.80;0.50;;;;;;;15.59;93.75;100112.88;5013385;28;20448;-69
2022/12/31 09:27:49;;;;;;;5.07;0.60;;;;;;;15.53;94.02;100106.03;5012874;28;20498;-69
2022/12/31 09:30:17;;;;;;;3.87;0.50;;;;;;;15.47;94.44;100107.44;5012656;28;20521;-69
2022/12/31 09:32:55;;;;;;;3.97;0.60;;;;;;;15.58;93.92;100109.34;5012053;28;20467;-69
2022/12/31 09:35:30;;;;;;;4.00;0.60;;;;;;;15.67;93.47;100127.53;5012411;28;20466;-69
2022/12/31 09:38:01;;;;;;;5.60;0.60;;;;;;;15.69;92.84;100119.81;5012705;28;20607;-69
2022/12/31 09:40:50;;;;;;;6.53;0.60;;;;;;;15.72;92.72;100130.84;5011927;28;20490;-69
2022/12/31 09:43:50;;;;;;;4.60;0.90;;;;;;;15.73;92.74;100128.88;5012109;28;20503;-69
2022/12/31 09:46:43;;;;;;;3.73;0.50;;;;;;;15.83;92.46;100142.03;4996701;28;20431;-69
2022/12/31 09:50:03;;;;;;;3.77;0.50;;;;;;;15.83;93.49;100152.97;5012046;28;20502;-69
2022/12/31 09:52:42;;;;;;;7.30;0.70;;;;;;;15.72;94.00;100132.78;4951382;29;20841;-69
2022/12/31 09:55:31;;;;;;;3.90;0.60;;;;;;;15.55;95.38;100133.81;5042986;22;20491;-65
2022/12/31 09:58:12;;;;;;;9.90;0.70;;;;;;;15.50;95.63;100144.97;5016105;28;20443;-65
2022/12/31 10:00:44;;;;;;;4.50;0.63;;;;;;;15.47;96.56;100151.91;5011089;28;20444;-65
2022/12/31 10:03:29;;;;;;;4.43;0.40;;;;;;;15.47;96.38;100167.50;5011069;28;20430;-66
2022/12/31 10:06:14;;;;;;;3.90;0.60;;;;;;;15.50;96.90;100155.88;5004931;28;20873;-65
2022/12/31 10:09:00;;;;;;;4.00;0.60;;;;;;;15.42;97.78;100160.34;5005647;28;20455;-65
2022/12/31 10:11:32;;;;;;;3.80;0.50;;;;;;;15.46;98.24;100161.25;5011475;28;20513;-64
2022/12/31 10:14:16;;;;;;;4.37;0.50;;;;;;;15.39;98.76;100159.06;5022078;28;20943;-64
2022/12/31 10:17:02;;;;;;;3.73;0.47;;;;;;;15.30;100.00;100180.25;5024921;28;20456;-65
2022/12/31 10:19:50;;;;;;;3.80;0.53;;;;;;;15.20;100.00;100180.72;5012832;28;20454;-65
2022/12/31 10:22:43;;;;;;;5.07;0.67;;;;;;;15.16;100.00;100185.25;5014819;28;20498;-66
2022/12/31 10:25:26;;;;;;;4.37;0.70;;;;;;;15.06;100.00;100191.97;5014986;28;20483;-65
2022/12/31 10:28:00;;;;;;;4.07;0.60;;;;;;;15.06;100.00;100207.53;5015725;28;20439;-66
2022/12/31 10:30:33;;;;;;;3.97;0.60;;;;;;;15.08;100.00;100205.25;5006581;28;20478;-65
2022/12/31 10:33:08;;;;;;;5.10;0.80;;;;;;;14.93;100.00;100209.47;5014247;28;20906;-65
2022/12/31 10:35:41;;;;;;;3.80;0.47;;;;;;;14.75;100.00;100205.34;5014741;28;20467;-65
2022/12/31 10:38:26;;;;;;;5.37;1.27;;;;;;;14.66;100.00;100208.16;5011881;28;20469;-65
2022/12/31 10:41:22;;;;;;;3.90;0.70;;;;;;;14.68;100.00;100214.06;5002168;28;20456;-64
2022/12/31 10:44:23;;;;;;;4.00;0.60;;;;;;;14.63;100.00;100211.56;5016293;28;20452;-64
2022/12/31 10:47:21;;;;;;;4.07;0.63;;;;;;;14.58;100.00;100217.22;5014390;28;20491;-65
2022/12/31 10:50:11;;;;;;;4.43;0.70;;;;;;;14.53;100.00;100218.25;5018071;28;20477;-65
2022/12/31 10:53:10;;;;;;;4.40;0.83;;;;;;;14.48;100.00;100215.72;5019771;28;20448;-65
2022/12/31 10:55:57;;;;;;;4.03;0.70;;;;;;;14.47;100.00;100219.53;5006535;28;20583;-66
2022/12/31 10:59:25;;;;;;;4.13;0.83;;;;;;;14.45;100.00;100221.81;5014420;28;20464;-67
2022/12/31 11:02:06;;;;;;;4.20;0.80;;;;;;;14.34;100.00;100221.44;4935435;29;20432;-65
2022/12/31 11:05:06;;;;;;;4.30;0.70;;;;;;;14.33;100.00;100224.50;4938815;29;20475;-65
2022/12/31 11:08:02;;;;;;;4.20;0.87;;;;;;;14.27;100.00;100228.56;5012608;28;20474;-64
2022/12/31 11:11:07;;;;;;;4.83;0.50;;;;;;;14.23;100.00;100239.31;4996768;28;20570;-63
2022/12/31 11:13:57;;;;;;;4.93;0.80;;;;;;;14.17;100.00;100245.31;5013398;28;20961;-64
2022/12/31 11:16:36;;;;;;;4.40;0.70;;;;;;;14.20;100.00;100239.97;5017902;28;21859;-63
2022/12/31 11:19:12;;;;;;;4.33;0.63;;;;;;;14.18;100.00;100250.44;5021205;28;21010;-63
2022/12/31 11:22:01;;;;;;;4.93;1.00;;;;;;;14.25;100.00;100231.59;5015953;28;20452;-64
2022/12/31 11:24:39;;;;;;;6.07;1.00;;;;;;;14.23;100.00;100227.63;4980685;28;20495;-63
2022/12/31 11:27:22;;;;;;;4.30;0.70;;;;;;;14.31;100.00;100215.88;5015082;28;20522;-63
2022/12/31 11:30:17;;;;;;;5.10;1.00;;;;;;;14.38;100.00;100205.22;5009208;28;20661;-62
2022/12/31 11:32:57;;;;;;;4.37;0.90;;;;;;;14.42;100.00;100189.00;4995299;28;20543;-63
2022/12/31 11:35:33;;;;;;;4.20;0.87;;;;;;;14.42;100.00;100178.88;5000546;28;20495;-64
2022/12/31 11:38:10;;;;;;;4.20;0.70;;;;;;;14.41;100.00;100179.22;5006018;28;20460;-64
2022/12/31 11:40:41;;;;;;;4.80;1.10;;;;;;;14.40;100.00;100172.97;5007786;28;20522;-64
2022/12/31 11:43:21;;;;;;;4.57;1.10;;;;;;;14.48;100.00;100176.75;5009851;28;20460;-64
2022/12/31 11:46:18;;;;;;;4.50;0.97;;;;;;;14.64;100.00;100174.97;5009176;28;20487;-64
2022/12/31 11:48:57;;;;;;;4.57;0.77;;;;;;;15.04;100.00;100177.84;4999991;28;20799;-64
2022/12/31 11:51:48;;;;;;;4.00;0.67;;;;;;;15.45;100.00;100178.75;5015158;28;20472;-65